TimeGMT,TemperatureF,Dew PointF,Humidity,Sea Level PressureIn,VisibilityMPH,Wind Direction,Wind SpeedMPH,Gust SpeedMPH,PrecipitationIn,Events,Conditions,WindDirDegrees,DateUTC
12:20 AM,41.0,37.4,87,29.86,6.2,SW,18.4,-,N/A,,Partly Cloudy,230,2013-12-14 00:20:00
12:50 AM,42.8,37.4,81,29.86,6.2,SW,19.6,-,N/A,,Mostly Cloudy,230,2013-12-14 00:50:00
1:20 AM,42.8,37.4,81,29.89,6.2,SW,18.4,-,N/A,Rain,Light Rain,230,2013-12-14 01:20:00
1:50 AM,41.0,37.4,87,29.89,6.2,WSW,17.3,-,N/A,,Mostly Cloudy,240,2013-12-14 01:50:00
2:20 AM,41.0,39.2,93,29.89,6.2,SW,19.6,-,N/A,,Mostly Cloudy,230,2013-12-14 02:20:00
2:50 AM,41.0,37.4,87,29.89,6.2,SW,17.3,-,N/A,,Mostly Cloudy,230,2013-12-14 02:50:00
3:20 AM,41.0,37.4,87,29.89,6.2,SW,13.8,-,N/A,,Scattered Clouds,220,2013-12-14 03:20:00
3:50 AM,41.0,37.4,87,29.89,6.2,SSW,11.5,-,N/A,,Partly Cloudy,200,2013-12-14 03:50:00
4:20 AM,41.0,37.4,87,29.89,6.2,SW,15.0,-,N/A,,Partly Cloudy,220,2013-12-14 04:20:00
4:50 AM,39.2,37.4,93,29.89,6.2,SSW,12.7,-,N/A,,Partly Cloudy,210,2013-12-14 04:50:00
5:20 AM,41.0,37.4,87,29.89,6.2,South,10.4,-,N/A,,Mostly Cloudy,190,2013-12-14 05:20:00
5:50 AM,41.0,37.4,87,29.89,6.2,South,6.9,-,N/A,,Scattered Clouds,190,2013-12-14 05:50:00
6:20 AM,37.4,35.6,93,29.86,-9999.0,South,6.9,-,N/A,,Clear,190,2013-12-14 06:20:00
6:50 AM,41.0,35.6,81,29.86,6.2,South,12.7,-,N/A,,Partly Cloudy,180,2013-12-14 06:50:00
7:20 AM,42.8,37.4,81,29.83,6.2,South,15.0,-,N/A,,Mostly Cloudy,180,2013-12-14 07:20:00
7:50 AM,42.8,39.2,87,29.80,6.2,South,12.7,-,N/A,,Mostly Cloudy,170,2013-12-14 07:50:00
8:20 AM,42.8,39.2,87,29.80,6.2,SSE,6.9,-,N/A,,Mostly Cloudy,160,2013-12-14 08:20:00
8:50 AM,42.8,41.0,93,29.74,6.2,SSE,8.1,-,N/A,,Scattered Clouds,150,2013-12-14 08:50:00
9:20 AM,46.4,42.8,87,29.74,6.2,South,11.5,-,N/A,,Scattered Clouds,170,2013-12-14 09:20:00
9:50 AM,50.0,44.6,82,29.71,6.2,South,11.5,-,N/A,,Scattered Clouds,170,2013-12-14 09:50:00
10:20 AM,48.2,46.4,93,29.68,5.6,South,19.6,33.4,N/A,Rain,Light Rain,190,2013-12-14 10:20:00
10:50 AM,48.2,46.4,93,29.65,5.6,South,20.7,32.2,N/A,Rain,Light Rain,190,2013-12-14 10:50:00
11:20 AM,48.2,48.2,100,29.59,5.0,South,24.2,41.4,N/A,Rain,Light Rain,190,2013-12-14 11:20:00
11:50 AM,48.2,48.2,100,29.56,-9999.0,South,28.8,-,N/A,Rain,Rain,190,2013-12-14 11:50:00
12:20 PM,48.2,48.2,100,29.53,-9999.0,South,27.6,40.3,N/A,Rain,Rain,180,2013-12-14 12:20:00
12:50 PM,48.2,48.2,100,29.50,-9999.0,South,29.9,44.9,N/A,Rain,Rain,190,2013-12-14 12:50:00
1:20 PM,48.2,48.2,100,29.47,3.1,South,28.8,40.3,N/A,Rain,Light Rain,190,2013-12-14 13:20:00
1:50 PM,48.2,48.2,100,29.44,4.3,South,31.1,48.3,N/A,Rain,Light Rain,190,2013-12-14 13:50:00
2:20 PM,50.0,48.2,94,29.42,3.1,South,31.1,44.9,N/A,Rain,Heavy Rain,190,2013-12-14 14:20:00
2:50 PM,50.0,50.0,100,29.42,-9999.0,SSW,29.9,42.6,N/A,Rain,Light Rain,200,2013-12-14 14:50:00
3:20 PM,50.0,50.0,100,29.39,3.7,SSW,32.2,50.6,N/A,Rain,Light Rain,200,2013-12-14 15:20:00
3:50 PM,50.0,50.0,100,29.39,3.1,SSW,33.4,52.9,N/A,Rain,Light Rain,200,2013-12-14 15:50:00
4:20 PM,50.0,50.0,100,29.39,2.5,SSW,32.2,44.9,N/A,Rain,Rain,210,2013-12-14 16:20:00
4:50 PM,50.0,50.0,100,29.39,-9999.0,SSW,36.8,52.9,N/A,Rain,Light Rain,210,2013-12-14 16:50:00
5:20 PM,50.0,50.0,100,29.42,-9999.0,SW,31.1,-,N/A,Rain,Rain,230,2013-12-14 17:20:00
5:50 PM,48.2,48.2,100,29.47,5.0,West,19.6,31.1,N/A,Rain,Light Rain,260,2013-12-14 17:50:00
6:20 PM,46.4,46.4,100,29.47,6.2,WSW,12.7,-,N/A,,Partly Cloudy,250,2013-12-14 18:20:00
6:50 PM,46.4,46.4,100,29.47,-9999.0,WSW,9.2,-,N/A,,Clear,240,2013-12-14 18:50:00
7:20 PM,48.2,46.4,93,29.50,-9999.0,WSW,13.8,-,N/A,,Clear,240,2013-12-14 19:20:00
7:50 PM,42.8,42.8,100,29.53,6.2,SW,8.1,-,N/A,,Partly Cloudy,230,2013-12-14 19:50:00
8:20 PM,44.6,42.8,93,29.53,6.2,WSW,13.8,-,N/A,,Partly Cloudy,240,2013-12-14 20:20:00
8:50 PM,44.6,42.8,93,29.56,-9999.0,WSW,12.7,-,N/A,,Clear,240,2013-12-14 20:50:00
9:20 PM,44.6,42.8,93,29.59,-9999.0,SW,10.4,-,N/A,,Clear,230,2013-12-14 21:20:00
9:50 PM,44.6,42.8,93,29.59,-9999.0,SW,11.5,-,N/A,,Clear,230,2013-12-14 21:50:00
10:20 PM,44.6,42.8,93,29.59,-9999.0,WSW,10.4,-,N/A,,Clear,240,2013-12-14 22:20:00
10:50 PM,44.6,42.8,93,29.62,-9999.0,SW,11.5,-,N/A,,Clear,230,2013-12-14 22:50:00
11:20 PM,46.4,42.8,87,29.62,6.2,SW,16.1,-,N/A,Rain,Light Rain Showers,220,2013-12-14 23:20:00
11:50 PM,44.6,42.8,93,29.59,6.2,SW,19.6,-,N/A,Rain,Light Rain Showers,220,2013-12-14 23:50:00